createdAt,value
2022-08-05T00:00:16.452Z,20.30
2022-08-05T00:03:04.052Z,20.30
2022-08-05T00:06:05.771Z,20.30
2022-08-05T00:08:34.569Z,20.30
2022-08-05T00:11:20.224Z,20.30
2022-08-05T00:13:53.159Z,20.30
2022-08-05T00:16:36.254Z,21.00
2022-08-05T00:19:08.039Z,21.10
2022-08-05T00:21:35.711Z,21.30
2022-08-05T00:24:10.546Z,20.10
2022-08-05T00:26:38.942Z,20.10
2022-08-05T00:29:13.821Z,20.10
2022-08-05T00:31:53.590Z,20.10
2022-08-05T00:34:53.546Z,20.10
2022-08-05T00:37:15.438Z,20.10
2022-08-05T00:39:57.509Z,20.00
2022-08-05T00:42:37.566Z,20.00
2022-08-05T00:45:08.672Z,20.00
2022-08-05T00:47:57.150Z,19.90
2022-08-05T00:50:25.299Z,19.90
2022-08-05T00:52:55.177Z,21.40
2022-08-05T00:55:34.015Z,19.80
2022-08-05T00:58:11.366Z,19.80
2022-08-05T01:00:39.642Z,19.60
2022-08-05T01:03:07.827Z,19.80
2022-08-05T01:05:35.467Z,19.70
2022-08-05T01:08:39.879Z,19.70
2022-08-05T01:11:13.904Z,19.70
2022-08-05T01:14:15.634Z,21.20
2022-08-05T01:16:57.014Z,19.70
2022-08-05T01:19:56.116Z,19.60
2022-08-05T01:22:57.432Z,19.50
2022-08-05T01:25:53.251Z,19.50
2022-08-05T01:28:37.837Z,19.50
2022-08-05T01:31:23.005Z,19.40
2022-08-05T01:33:57.197Z,19.40
2022-08-05T01:36:36.163Z,19.40
2022-08-05T01:39:11.925Z,19.60
2022-08-05T01:41:44.352Z,19.30
2022-08-05T01:44:13.886Z,19.40
2022-08-05T01:46:46.197Z,19.40
2022-08-05T01:49:25.074Z,19.30
2022-08-05T01:52:01.419Z,20.60
2022-08-05T01:54:46.192Z,19.20
2022-08-05T01:58:11.072Z,20.60
2022-08-05T02:00:11.697Z,19.20
2022-08-05T02:02:54.283Z,19.10
2022-08-05T02:05:30.978Z,19.10
2022-08-05T02:08:02.035Z,19.10
2022-08-05T02:10:36.575Z,19.10
2022-08-05T02:13:16.186Z,19.10
2022-08-05T02:15:47.525Z,19.10
2022-08-05T02:18:31.515Z,19.50
2022-08-05T02:21:15.648Z,19.10
2022-08-05T02:23:46.293Z,19.10
2022-08-05T02:26:15.640Z,19.00
2022-08-05T02:28:46.385Z,19.00
2022-08-05T02:31:23.047Z,19.00
2022-08-05T02:34:02.246Z,19.00
2022-08-05T02:36:32.607Z,19.00
2022-08-05T02:39:04.164Z,19.00
2022-08-05T02:41:57.734Z,20.00
2022-08-05T02:44:30.039Z,19.10
2022-08-05T02:47:00.737Z,18.90
2022-08-05T02:49:41.661Z,18.90
2022-08-05T02:52:29.639Z,18.90
2022-08-05T02:55:05.489Z,18.90
2022-08-05T02:58:10.384Z,18.90
2022-08-05T03:00:22.977Z,18.80
2022-08-05T03:02:53.657Z,19.80
2022-08-05T03:06:54.726Z,18.80
2022-08-05T03:08:11.434Z,18.80
2022-08-05T03:10:38.987Z,19.20
2022-08-05T03:13:17.125Z,18.80
2022-08-05T03:15:45.695Z,18.60
2022-08-05T03:18:17.328Z,18.90
2022-08-05T03:20:48.867Z,18.90
2022-08-05T03:23:19.093Z,18.90
2022-08-05T03:26:05.084Z,19.80
2022-08-05T03:28:38.980Z,18.90
2022-08-05T03:31:06.765Z,19.00
2022-08-05T03:33:51.293Z,19.00
2022-08-05T03:36:30.060Z,19.00
2022-08-05T03:38:58.239Z,19.10
2022-08-05T03:41:25.671Z,21.00
2022-08-05T03:44:09.731Z,19.20
2022-08-05T03:46:39.037Z,19.80
2022-08-05T03:49:06.667Z,19.40
2022-08-05T03:52:39.017Z,19.60
2022-08-05T03:55:51.689Z,20.60
2022-08-05T03:57:44.748Z,19.70
2022-08-05T04:00:15.542Z,21.00
2022-08-05T04:02:58.629Z,22.10
2022-08-05T04:05:33.806Z,22.80
2022-08-05T04:08:30.180Z,24.40
2022-08-05T04:10:58.699Z,25.80
2022-08-05T04:13:27.821Z,27.40
2022-08-05T04:16:14.966Z,28.40
2022-08-05T04:18:44.810Z,29.70
2022-08-05T04:22:05.805Z,30.60
2022-08-05T04:24:06.642Z,31.50
2022-08-05T04:26:36.127Z,32.30
2022-08-05T04:29:07.445Z,33.30
2022-08-05T04:31:39.413Z,34.30
2022-08-05T04:34:31.282Z,34.60
2022-08-05T04:36:53.904Z,35.30
2022-08-05T04:39:21.848Z,35.70
2022-08-05T04:41:51.211Z,36.30
2022-08-05T04:44:21.216Z,36.90
2022-08-05T04:46:58.490Z,37.60
2022-08-05T04:49:39.183Z,37.90
2022-08-05T04:52:15.970Z,38.60
2022-08-05T04:54:43.029Z,39.20
2022-08-05T04:57:10.088Z,39.70
2022-08-05T04:59:40.478Z,40.00
2022-08-05T05:02:36.541Z,40.50
2022-08-05T05:05:01.825Z,40.70
2022-08-05T05:07:32.277Z,41.30
2022-08-05T05:10:04.444Z,42.00
2022-08-05T05:12:32.288Z,42.40
2022-08-05T05:14:59.463Z,42.60
2022-08-05T05:17:55.663Z,42.90
2022-08-05T05:20:23.296Z,43.20
2022-08-05T05:23:02.139Z,43.80
2022-08-05T05:25:40.795Z,44.20
2022-08-05T05:28:09.814Z,44.40
2022-08-05T05:30:37.900Z,44.70
2022-08-05T05:33:16.039Z,45.10
2022-08-05T05:35:45.721Z,45.50
2022-08-05T05:38:14.271Z,45.90
2022-08-05T05:40:49.954Z,45.80
2022-08-05T05:43:22.383Z,45.90
2022-08-05T05:46:17.675Z,45.70
2022-08-05T05:48:48.346Z,45.50
2022-08-05T05:51:23.215Z,46.10
2022-08-05T05:53:57.428Z,46.70
2022-08-05T05:56:32.347Z,46.90
2022-08-05T05:59:06.038Z,47.00
2022-08-05T06:01:39.662Z,46.40
2022-08-05T06:04:08.333Z,46.40
2022-08-05T06:06:42.029Z,45.90
2022-08-05T06:09:16.990Z,46.00
2022-08-05T06:12:01.442Z,46.20
2022-08-05T06:14:31.066Z,46.20
2022-08-05T06:16:59.160Z,46.20
2022-08-05T06:19:34.059Z,46.20
2022-08-05T06:22:07.411Z,46.50
2022-08-05T06:24:42.289Z,47.30
2022-08-05T06:28:09.521Z,47.80
2022-08-05T06:30:16.838Z,47.90
2022-08-05T06:32:47.532Z,48.20
2022-08-05T06:35:15.536Z,47.60
2022-08-05T06:38:08.255Z,47.10
2022-08-05T06:40:37.304Z,47.00
2022-08-05T06:43:58.515Z,48.00
2022-08-05T06:46:06.846Z,48.10
2022-08-05T06:48:53.390Z,47.90
2022-08-05T06:51:29.966Z,48.30
2022-08-05T06:54:03.997Z,48.70
2022-08-05T06:56:34.303Z,49.00
2022-08-05T06:59:09.373Z,48.50
2022-08-05T07:01:37.305Z,47.90
2022-08-05T07:04:08.435Z,47.60
2022-08-05T07:06:35.765Z,47.20
2022-08-05T07:09:06.227Z,46.40
2022-08-05T07:11:37.429Z,46.00
2022-08-05T07:14:32.172Z,45.70
2022-08-05T07:18:02.278Z,44.50
2022-08-05T07:22:39.878Z,42.70
2022-08-05T07:25:23.091Z,43.00
2022-08-05T07:28:03.818Z,41.10
2022-08-05T07:30:39.049Z,39.70
2022-08-05T07:33:15.670Z,38.70
2022-08-05T07:36:03.318Z,37.60
2022-08-05T07:38:35.679Z,36.60
2022-08-05T07:42:06.798Z,35.50
2022-08-05T07:44:18.365Z,34.90
2022-08-05T07:46:48.598Z,34.40
2022-08-05T07:49:18.705Z,34.00
2022-08-05T07:51:53.405Z,33.90
2022-08-05T07:54:31.112Z,33.70
2022-08-05T07:57:22.566Z,33.40
2022-08-05T07:59:52.006Z,32.90
2022-08-05T08:02:30.868Z,32.60
2022-08-05T08:05:15.940Z,32.40
2022-08-05T08:08:00.146Z,32.30
2022-08-05T08:10:28.961Z,32.40
2022-08-05T08:12:58.513Z,32.50
2022-08-05T08:15:37.413Z,32.60
2022-08-05T08:18:14.226Z,32.70
2022-08-05T08:20:59.778Z,32.30
2022-08-05T08:24:01.409Z,31.90
2022-08-05T08:26:16.399Z,31.40
2022-08-05T08:28:59.874Z,31.30
2022-08-05T08:31:36.930Z,31.30
2022-08-05T08:34:08.734Z,31.00
2022-08-05T08:36:49.038Z,30.80
2022-08-05T08:39:23.576Z,30.60
2022-08-05T08:41:59.594Z,30.50
2022-08-05T08:45:18.094Z,30.30
2022-08-05T08:48:05.564Z,30.40
2022-08-05T08:50:33.032Z,30.30
2022-08-05T08:53:08.183Z,30.60
2022-08-05T08:56:04.965Z,30.70
2022-08-05T08:58:43.455Z,30.80
2022-08-05T09:01:17.068Z,30.90
2022-08-05T09:03:57.314Z,31.00
2022-08-05T09:06:29.902Z,31.00
2022-08-05T09:09:02.150Z,31.00
2022-08-05T09:11:52.075Z,31.00
2022-08-05T09:14:59.128Z,31.00
2022-08-05T09:17:40.147Z,30.90
2022-08-05T09:20:02.598Z,31.00
2022-08-05T09:23:05.063Z,31.10
2022-08-05T09:26:01.457Z,31.10
2022-08-05T09:28:24.337Z,31.00
2022-08-05T09:31:18.321Z,30.80
2022-08-05T09:33:59.322Z,30.50
2022-08-05T09:36:55.989Z,30.20
2022-08-05T09:39:44.885Z,30.20
2022-08-05T09:42:24.084Z,30.20
2022-08-05T09:44:57.413Z,30.30
2022-08-05T09:47:36.308Z,30.50
2022-08-05T09:50:38.218Z,30.20
2022-08-05T09:53:08.875Z,30.10
2022-08-05T09:55:57.214Z,30.10
2022-08-05T09:58:28.996Z,30.20
2022-08-05T10:00:59.425Z,30.30
2022-08-05T10:03:56.599Z,30.30
2022-08-05T10:06:19.983Z,30.40
2022-08-05T10:08:50.412Z,30.20
2022-08-05T10:11:21.901Z,30.20
2022-08-05T10:13:54.590Z,30.10
2022-08-05T10:16:41.578Z,30.20
2022-08-05T10:19:23.560Z,30.20
2022-08-05T10:21:59.631Z,30.10
2022-08-05T10:24:27.838Z,29.70
2022-08-05T10:26:56.767Z,30.20
2022-08-05T10:30:41.464Z,30.30
2022-08-05T10:32:53.603Z,30.20
2022-08-05T10:35:07.211Z,29.90
2022-08-05T10:37:40.233Z,29.90
2022-08-05T10:40:39.128Z,30.00
2022-08-05T10:43:43.172Z,30.00
2022-08-05T10:46:13.494Z,30.10
2022-08-05T10:48:56.501Z,30.20
2022-08-05T10:51:28.443Z,30.20
2022-08-05T10:54:05.950Z,30.20
2022-08-05T10:56:57.778Z,30.20
2022-08-05T11:00:02.261Z,30.30
2022-08-05T11:02:38.070Z,30.30
2022-08-05T11:05:10.245Z,30.30
2022-08-05T11:08:03.147Z,30.30
2022-08-05T11:10:38.338Z,30.30
2022-08-05T11:13:39.908Z,30.20
2022-08-05T11:16:47.878Z,30.10
2022-08-05T11:20:10.082Z,30.10
2022-08-05T11:22:49.971Z,30.20
2022-08-05T11:26:06.278Z,30.10
2022-08-05T11:28:16.923Z,30.20
2022-08-05T11:30:58.537Z,30.30
2022-08-05T11:33:48.592Z,30.40
2022-08-05T11:36:34.237Z,30.40
2022-08-05T11:39:07.275Z,30.30
2022-08-05T11:42:01.546Z,30.20
2022-08-05T11:44:40.560Z,30.20
2022-08-05T11:47:15.085Z,30.20
2022-08-05T11:49:50.932Z,30.20
2022-08-05T11:52:29.545Z,30.30
2022-08-05T11:54:59.192Z,30.30
2022-08-05T11:57:39.556Z,30.30
2022-08-05T12:00:32.062Z,30.40
2022-08-05T12:03:28.655Z,30.40
2022-08-05T12:06:06.464Z,30.30
2022-08-05T12:08:49.949Z,30.20
2022-08-05T12:11:20.447Z,30.10
2022-08-05T12:14:04.323Z,30.20
2022-08-05T12:16:45.627Z,30.30
2022-08-05T12:20:17.273Z,30.30
2022-08-05T12:22:06.159Z,30.30
2022-08-05T12:24:49.731Z,30.30
2022-08-05T12:27:25.305Z,30.20
2022-08-05T12:30:15.614Z,30.20
2022-08-05T12:32:51.141Z,30.40
2022-08-05T12:35:21.740Z,30.50
2022-08-05T12:37:49.475Z,30.50
2022-08-05T12:40:28.740Z,30.60
2022-08-05T12:42:57.076Z,30.40
2022-08-05T12:45:48.350Z,30.40
2022-08-05T12:48:26.984Z,30.40
2022-08-05T12:52:10.224Z,30.40
2022-08-05T12:54:04.020Z,30.40
2022-08-05T12:56:35.430Z,30.40
2022-08-05T13:00:08.723Z,30.50
2022-08-05T13:02:27.441Z,30.50
2022-08-05T13:04:57.903Z,30.30
2022-08-05T13:07:57.518Z,30.20
2022-08-05T13:10:19.851Z,30.30
2022-08-05T13:12:50.963Z,30.30
2022-08-05T13:15:41.259Z,30.50
2022-08-05T13:18:19.792Z,30.40
2022-08-05T13:20:49.893Z,30.40
2022-08-05T13:23:22.763Z,30.30
2022-08-05T13:25:59.007Z,30.30
2022-08-05T13:28:28.009Z,30.30
2022-08-05T13:30:57.216Z,30.30
2022-08-05T13:34:21.797Z,30.30
2022-08-05T13:36:14.581Z,30.20
2022-08-05T13:38:43.059Z,30.20
2022-08-05T13:41:11.698Z,30.20
2022-08-05T13:43:44.247Z,30.10
2022-08-05T13:46:43.808Z,30.00
2022-08-05T13:49:13.611Z,30.00
2022-08-05T13:51:46.166Z,30.10
2022-08-05T13:54:16.307Z,30.00
2022-08-05T13:56:51.695Z,30.00
2022-08-05T13:59:25.069Z,30.00
2022-08-05T14:02:00.113Z,30.00
2022-08-05T14:04:54.811Z,30.00
2022-08-05T14:07:26.187Z,30.00
2022-08-05T14:10:19.245Z,29.90
2022-08-05T14:12:55.472Z,29.90
2022-08-05T14:16:05.605Z,30.00
2022-08-05T14:18:17.680Z,30.10
2022-08-05T14:20:48.453Z,30.10
2022-08-05T14:23:23.822Z,30.10
2022-08-05T14:25:58.454Z,30.10
2022-08-05T14:28:28.687Z,30.00
2022-08-05T14:31:00.854Z,30.00
2022-08-05T14:33:56.362Z,30.00
2022-08-05T14:36:21.456Z,30.10
2022-08-05T14:38:49.954Z,30.10
2022-08-05T14:41:18.709Z,30.10
2022-08-05T14:43:59.695Z,30.10
2022-08-05T14:46:31.003Z,30.10
2022-08-05T14:49:06.225Z,30.10
2022-08-05T14:51:42.443Z,30.10
2022-08-05T14:54:28.268Z,30.20
2022-08-05T14:56:58.597Z,30.20
2022-08-05T14:59:29.678Z,30.10
2022-08-05T15:02:03.625Z,30.10
2022-08-05T15:04:43.398Z,30.10
2022-08-05T15:08:04.605Z,30.10
2022-08-05T15:10:01.222Z,30.10
2022-08-05T15:12:40.895Z,29.90
2022-08-05T15:15:16.768Z,30.00
2022-08-05T15:18:05.611Z,29.90
2022-08-05T15:20:33.553Z,29.90
2022-08-05T15:23:08.906Z,29.80
2022-08-05T15:25:52.007Z,29.80
2022-08-05T15:28:26.963Z,29.80
2022-08-05T15:30:55.605Z,29.80
2022-08-05T15:34:19.134Z,29.70
2022-08-05T15:36:17.699Z,29.60
2022-08-05T15:41:00.837Z,29.60
2022-08-05T15:41:56.143Z,29.60
2022-08-05T15:44:27.488Z,29.50
2022-08-05T15:46:55.772Z,29.50
2022-08-05T15:49:52.064Z,29.50
2022-08-05T15:52:29.406Z,29.40
2022-08-05T15:54:57.665Z,29.50
2022-08-05T15:57:33.079Z,29.40
2022-08-05T16:00:03.962Z,29.40
2022-08-05T16:02:32.616Z,29.40
2022-08-05T16:05:00.147Z,29.40
2022-08-05T16:07:29.491Z,29.40
2022-08-05T16:09:57.261Z,29.30
2022-08-05T16:12:24.841Z,29.30
2022-08-05T16:14:52.234Z,29.30
2022-08-05T16:17:19.577Z,29.30
2022-08-05T16:20:02.897Z,29.30
2022-08-05T16:22:34.017Z,29.20
2022-08-05T16:25:08.058Z,29.20
2022-08-05T16:28:00.850Z,29.20
2022-08-05T16:30:28.819Z,29.20
2022-08-05T16:32:57.922Z,29.10
2022-08-05T16:35:30.645Z,29.10
2022-08-05T16:38:02.977Z,29.00
2022-08-05T16:40:48.102Z,29.00
2022-08-05T16:43:25.047Z,29.00
2022-08-05T16:46:04.152Z,28.90
2022-08-05T16:48:37.837Z,28.90
2022-08-05T16:51:09.194Z,28.90
2022-08-05T16:54:05.211Z,28.80
2022-08-05T16:56:27.822Z,28.80
2022-08-05T16:58:55.612Z,28.80
2022-08-05T17:01:24.221Z,28.70
2022-08-05T17:03:52.204Z,28.70
2022-08-05T17:06:20.593Z,28.70
2022-08-05T17:08:54.185Z,28.60
2022-08-05T17:11:25.953Z,28.80
2022-08-05T17:14:00.279Z,28.50
2022-08-05T17:16:38.305Z,28.50
2022-08-05T17:19:07.533Z,28.40
2022-08-05T17:21:37.691Z,28.40
2022-08-05T17:24:30.101Z,28.40
2022-08-05T17:26:58.485Z,28.30
2022-08-05T17:29:33.501Z,28.20
2022-08-05T17:32:11.655Z,28.20
2022-08-05T17:34:48.131Z,28.20
2022-08-05T17:37:41.166Z,28.20
2022-08-05T17:40:10.133Z,28.30
2022-08-05T17:42:41.645Z,28.00
2022-08-05T17:45:20.121Z,28.00
2022-08-05T17:47:53.861Z,27.90
2022-08-05T17:50:28.533Z,28.00
2022-08-05T17:53:02.200Z,27.80
2022-08-05T17:55:37.479Z,27.70
2022-08-05T17:58:09.704Z,27.70
2022-08-05T18:00:40.905Z,27.60
2022-08-05T18:03:28.134Z,27.50
2022-08-05T18:06:04.653Z,27.40
2022-08-05T18:08:33.727Z,27.40
2022-08-05T18:11:03.172Z,27.30
2022-08-05T18:13:36.807Z,27.20
2022-08-05T18:16:13.327Z,27.10
2022-08-05T18:18:41.382Z,27.00
2022-08-05T18:21:19.824Z,26.90
2022-08-05T18:23:53.943Z,26.90
2022-08-05T18:26:29.291Z,26.60
2022-08-05T18:28:59.008Z,26.70
2022-08-05T18:31:35.189Z,26.60
2022-08-05T18:34:03.936Z,26.50
2022-08-05T18:36:35.454Z,26.40
2022-08-05T18:39:06.527Z,26.40
2022-08-05T18:41:55.016Z,26.30
2022-08-05T18:44:33.044Z,26.20
2022-08-05T18:47:03.382Z,26.20
2022-08-05T18:49:58.453Z,26.10
2022-08-05T18:52:36.005Z,26.10
2022-08-05T18:55:06.429Z,26.00
2022-08-05T18:57:43.670Z,26.00
2022-08-05T19:00:21.094Z,25.80
2022-08-05T19:02:56.146Z,25.80
2022-08-05T19:06:12.307Z,25.70
2022-08-05T19:08:15.277Z,25.70
2022-08-05T19:10:42.601Z,25.60
2022-08-05T19:13:12.255Z,25.60
2022-08-05T19:15:57.230Z,25.50
2022-08-05T19:18:28.781Z,25.50
2022-08-05T19:20:56.282Z,25.40
2022-08-05T19:24:05.166Z,25.40
2022-08-05T19:26:12.075Z,25.30
2022-08-05T19:28:43.582Z,25.30
2022-08-05T19:31:13.211Z,25.20
2022-08-05T19:33:48.631Z,25.10
2022-08-05T19:36:30.747Z,25.20
2022-08-05T19:39:01.557Z,25.10
2022-08-05T19:41:58.337Z,25.00
2022-08-05T19:44:18.900Z,25.00
2022-08-05T19:46:46.916Z,24.90
2022-08-05T19:49:16.997Z,25.40
2022-08-05T19:52:05.821Z,24.90
2022-08-05T19:54:34.320Z,24.90
2022-08-05T19:57:08.453Z,24.80
2022-08-05T19:59:56.536Z,24.80
2022-08-05T20:02:28.328Z,24.80
2022-08-05T20:04:58.488Z,24.70
2022-08-05T20:07:46.801Z,24.60
2022-08-05T20:10:16.069Z,24.70
2022-08-05T20:12:47.542Z,24.60
2022-08-05T20:15:48.640Z,24.60
2022-08-05T20:18:10.652Z,24.50
2022-08-05T20:20:55.277Z,24.50
2022-08-05T20:23:39.552Z,24.50
2022-08-05T20:26:16.070Z,24.50
2022-08-05T20:28:50.818Z,24.50
2022-08-05T20:31:21.413Z,24.40
2022-08-05T20:33:53.437Z,24.30
2022-08-05T20:36:22.587Z,24.40
2022-08-05T20:38:53.255Z,24.20
2022-08-05T20:41:26.601Z,24.70
2022-08-05T20:43:59.010Z,24.40
2022-08-05T20:46:27.850Z,24.60
2022-08-05T20:48:54.883Z,24.50
2022-08-05T20:51:22.021Z,25.20
2022-08-05T20:53:55.128Z,24.50
2022-08-05T20:56:29.941Z,24.60
2022-08-05T20:59:11.194Z,24.50
2022-08-05T21:01:44.907Z,24.60
2022-08-05T21:04:12.295Z,24.60
2022-08-05T21:06:45.367Z,24.60
2022-08-05T21:09:15.046Z,24.70
2022-08-05T21:12:06.988Z,24.70
2022-08-05T21:14:34.587Z,24.70
2022-08-05T21:17:05.939Z,25.60
2022-08-05T21:19:46.826Z,24.70
2022-08-05T21:22:21.814Z,24.70
2022-08-05T21:24:52.657Z,24.70
2022-08-05T21:27:27.359Z,24.60
2022-08-05T21:29:56.516Z,24.60
2022-08-05T21:32:27.014Z,24.50
2022-08-05T21:35:17.768Z,24.50
2022-08-05T21:37:47.211Z,24.40
2022-08-05T21:40:20.197Z,24.30
2022-08-05T21:42:47.922Z,24.20
2022-08-05T21:45:25.118Z,24.10
2022-08-05T21:48:06.413Z,24.10
2022-08-05T21:50:37.412Z,24.00
2022-08-05T21:53:16.323Z,24.00
2022-08-05T21:56:05.626Z,23.90
2022-08-05T21:58:41.990Z,23.90
2022-08-05T22:01:10.861Z,23.80
2022-08-05T22:03:52.852Z,23.80
2022-08-05T22:06:35.451Z,23.70
2022-08-05T22:09:13.858Z,23.60
2022-08-05T22:11:46.787Z,23.60
2022-08-05T22:14:33.428Z,23.60
2022-08-05T22:17:04.887Z,23.60
2022-08-05T22:20:00.131Z,23.60
2022-08-05T22:22:26.936Z,23.60
2022-08-05T22:25:18.015Z,23.60
2022-08-05T22:28:08.891Z,23.60
2022-08-05T22:30:55.612Z,23.50
2022-08-05T22:33:55.568Z,23.60
2022-08-05T22:36:14.709Z,23.60
2022-08-05T22:38:48.006Z,23.60
2022-08-05T22:42:04.250Z,24.40
2022-08-05T22:44:05.133Z,23.80
2022-08-05T22:46:32.814Z,24.20
2022-08-05T22:49:00.372Z,23.40
2022-08-05T22:52:03.100Z,23.40
2022-08-05T22:54:14.866Z,23.30
2022-08-05T22:56:42.663Z,23.20
2022-08-05T22:59:45.130Z,23.20
2022-08-05T23:02:05.478Z,23.10
2022-08-05T23:04:34.294Z,23.00
2022-08-05T23:07:01.869Z,22.90
2022-08-05T23:09:53.482Z,22.90
2022-08-05T23:12:17.993Z,22.90
2022-08-05T23:14:45.304Z,22.80
2022-08-05T23:17:34.480Z,22.70
2022-08-05T23:20:17.717Z,22.90
2022-08-05T23:22:48.583Z,22.70
2022-08-05T23:25:54.608Z,22.70
2022-08-05T23:28:07.043Z,24.80
2022-08-05T23:30:40.369Z,22.60
2022-08-05T23:33:16.029Z,22.60
2022-08-05T23:35:50.196Z,22.60
2022-08-05T23:38:18.245Z,22.60
2022-08-05T23:40:50.165Z,22.60
2022-08-05T23:43:25.537Z,22.50
2022-08-05T23:46:21.441Z,22.40
2022-08-05T23:48:59.988Z,22.40
2022-08-05T23:51:53.764Z,22.30
2022-08-05T23:54:30.171Z,22.20
2022-08-05T23:57:03.421Z,22.10
